ADDS METAR Data INFO
IDs: Format: Raw Decoded Include TAF

Data at: 1112 UTC 13 Dec 2017

KFOA 131055Z AUTO 19007KT 10SM BKN070 M04/M09 A2991 RMK AO2 T10361091
KFOA 131035Z AUTO 17006KT 10SM OVC080 M04/M09 A2992 RMK AO2 T10361086
KFOA 131015Z AUTO 17005KT 10SM BKN080 M05/M10 A2993 RMK AO2 T10461096
KFOA 130955Z AUTO 17004KT 10SM CLR M06/M10 A2994 RMK AO2 T10621100
KFOA 130935Z AUTO 18004KT 10SM CLR M06/M10 A2995 RMK AO2 T10581102
KFOA 130915Z AUTO 19004KT 10SM CLR M05/M11 A2995 RMK AO2 T10511107
KFOA 130855Z AUTO 20005KT 10SM CLR M05/M11 A2997 RMK AO2 T10501107
KFOA 130835Z AUTO 21006KT 10SM CLR M06/M10 A2998 RMK AO2 T10571103
KFOA 130815Z AUTO 20005KT 10SM CLR M05/M10 A2999 RMK AO2 T10511105
KFOA 130755Z AUTO 20006KT 10SM CLR M05/M10 A3000 RMK AO2 T10511100
KFOA 130735Z AUTO 20006KT 10SM CLR M05/M10 A3000 RMK AO2 T10531104
KFOA 130715Z AUTO 20006KT 10SM CLR M05/M10 A3001 RMK AO2 T10551100
KFOA 130655Z AUTO 21004KT 10SM CLR M05/M10 A3002 RMK AO2 T10541097
KFOA 130635Z AUTO 22004KT 10SM CLR M05/M10 A3003 RMK AO2 T10501098
KFOA 130615Z AUTO 20004KT 10SM CLR M05/M10 A3003 RMK AO2 T10531097
KFOA 130555Z AUTO 20003KT 10SM CLR M05/M10 A3005 RMK AO2 T10551097 11017 21055 400501055
KFOA 130535Z AUTO 21004KT 10SM CLR M05/M10 A3006 RMK AO2 T10471097
KFOA 130515Z AUTO 21004KT 10SM CLR M05/M10 A3008 RMK AO2 T10461098
KFOA 130455Z AUTO 22005KT 10SM CLR M05/M08 A3008 RMK AO2 T10501085
KFOA 130435Z AUTO 22003KT 10SM CLR M05/M09 A3009 RMK AO2 T10461093
KFOA 130415Z AUTO 22004KT 10SM CLR M05/M08 A3008 RMK AO2 T10551085
KFOA 130355Z AUTO 22004KT 10SM CLR M05/M09 A3009 RMK AO2 T10471094
KFOA 130335Z AUTO 22005KT 10SM CLR M05/M08 A3009 RMK AO2 T10521081
KFOA 130315Z AUTO 21003KT 10SM CLR M05/M08 A3010 RMK AO2 T10471085
KFOA 130255Z AUTO 22003KT 10SM CLR M05/M09 A3010 RMK AO2 T10471089
KFOA 130235Z AUTO 00000KT 10SM CLR M04/M10 A3011 RMK AO2 T10421100
KFOA 130215Z AUTO 27003KT 10SM CLR M03/M12 A3011 RMK AO2 T10301121
KFOA 130155Z AUTO 26003KT 10SM CLR M03/M12 A3011 RMK AO2 T10261125
KFOA 130135Z AUTO 29004KT 10SM SCT110 M03/M12 A3012 RMK AO2 T10261120
KFOA 130120Z AUTO 29004KT 10SM BKN120 M02/M12 A3012 RMK AO2 T10221121
KFOA 130055Z AUTO 29003KT 10SM BKN120 M02/M12 A3012 RMK AO2 T10211124
KFOA 130035Z AUTO 30003KT 10SM CLR M02/M13 A3012 RMK AO2 T10211126
KFOA 130015Z AUTO 29006KT 10SM CLR M02/M12 A3012 RMK AO2 T10181125
KFOA 122355Z AUTO 30004KT 10SM CLR M02/M12 A3013 RMK AO2 T10191120 10010 21019
KFOA 122335Z AUTO 29006KT 10SM CLR M02/M12 A3013 RMK AO2 T10161125
KFOA 122315Z AUTO 30006KT 10SM CLR M01/M13 A3012 RMK AO2 T10111132
KFOA 122255Z AUTO 31008KT 10SM CLR M01/M14 A3012 RMK AO2 T10071136
KFOA 122235Z AUTO 31008KT 10SM CLR 00/M14 A3012 RMK AO2 T10031136
KFOA 122215Z AUTO 31012G15KT 10SM CLR 00/M14 A3013 RMK AO2 T00001136
KFOA 122155Z AUTO 30012G17KT 10SM CLR 00/M13 A3012 RMK AO2 T00031133
KFOA 122135Z AUTO 29013KT 10SM CLR 01/M13 A3012 RMK AO2 T00061130
KFOA 122115Z AUTO 31011G18KT 10SM CLR 01/M13 A3012 RMK AO2 T00061130
KFOA 122055Z AUTO 32012G18KT 10SM CLR 01/M13 A3012 RMK AO2 T00081131
KFOA 122035Z AUTO 32013G17KT 10SM CLR 01/M13 A3012 RMK AO2 T00101130
KFOA 122015Z AUTO 32013G18KT 10SM CLR 01/M13 A3012 RMK AO2 T00081126
KFOA 121955Z AUTO 32013KT 10SM CLR 01/M12 A3013 RMK AO2 T00071117
KFOA 121935Z AUTO 29015G18KT 10SM CLR 01/M11 A3013 RMK AO2 T00081112
KFOA 121915Z AUTO 32013G19KT 10SM CLR 01/M12 A3012 RMK AO2 T00081119
KFOA 121855Z AUTO 31013G20KT 10SM CLR 00/M11 A3013 RMK AO2 T00041109
KFOA 121835Z AUTO 33016G20KT 10SM CLR 00/M11 A3014 RMK AO2 T00021114
KFOA 121815Z AUTO 31015G20KT 10SM CLR 00/M10 A3015 RMK AO2 T00031098
KFOA 121755Z AUTO 31014G20KT 10SM CLR 00/M10 A3015 RMK AO2 T00001100 10006 21019
KFOA 121735Z AUTO 31015G19KT 10SM CLR 00/M11 A3016 RMK AO2 T10021107
KFOA 121715Z AUTO 31016G23KT 10SM CLR 00/M10 A3017 RMK AO2 T10021097
KFOA 121655Z AUTO 31011G17KT 10SM CLR 00/M10 A3018 RMK AO2 T10031096
KFOA 121635Z AUTO 32015G25KT 10SM CLR 00/M10 A3018 RMK AO2 T10021100
KFOA 121615Z AUTO 31015G22KT 10SM CLR M01/M08 A3018 RMK AO2 T10071084
KFOA 121555Z AUTO 31014KT 10SM CLR M01/M08 A3018 RMK AO2 T10071083
KFOA 121535Z AUTO 32015G22KT 10SM CLR M01/M09 A3018 RMK AO2 T10121088
KFOA 121515Z AUTO 32016G22KT 10SM SCT026 M01/M08 A3018 RMK AO2 T10151082
KFOA 121455Z AUTO 32011G15KT 10SM SCT026 M01/M08 A3018 RMK AO2 T10151076
KFOA 121435Z AUTO 32014G21KT 10SM SCT026 M02/M07 A3017 RMK AO2 T10161075
KFOA 121415Z AUTO 33014G21KT 10SM CLR M02/M08 A3017 RMK AO2 T10171077
KFOA 121355Z AUTO 33016G20KT 10SM CLR M02/M07 A3015 RMK AO2 T10171075
KFOA 121335Z AUTO 32012G21KT 10SM SCT038 M02/M07 A3015 RMK AO2 T10171075
KFOA 121315Z AUTO 33017G21KT 10SM SCT038 M01/M07 A3014 RMK AO2 T10131074
KFOA 121255Z AUTO 33011G19KT 10SM SCT037 M01/M07 A3013 RMK AO2 T10091069
KFOA 121235Z AUTO 33018G24KT 10SM BKN035 00/M07 A3011 RMK AO2 T10011072
KFOA 121215Z AUTO 31015G22KT 10SM OVC035 00/M06 A3010 RMK AO2 T00041056
KFOA 121155Z AUTO 31012G23KT 10SM OVC037 01/M06 A3009 RMK AO2 T00071060 10050 20007
KFOA 121135Z AUTO 33019G27KT 10SM OVC035 01/M05 A3007 RMK AO2 T00141055
KFOA 121115Z AUTO 31008KT 10SM OVC035 02/M04 A3007 RMK AO2 T00151040
KFOA 121055Z AUTO 32009G17KT 10SM OVC037 02/M04 A3006 RMK AO2 T00171043
KFOA 121035Z AUTO 33016G23KT 10SM OVC037 02/M05 A3005 RMK AO2 T00201046
KFOA 121015Z AUTO 32016G26KT 10SM SCT022 SCT028 OVC037 02/M04 A3005 RMK AO2 T00201037
KFOA 120955Z AUTO 32018G22KT 10SM BKN020 OVC025 02/M01 A3004 RMK AO2 T00231011
KFOA 120935Z AUTO 30010G14KT 10SM BKN018 OVC025 03/00 A3004 RMK AO2 T00280000
KFOA 120915Z AUTO 33012G17KT 10SM OVC022 03/00 A3003 RMK AO2 T00290000
KFOA 120855Z AUTO 33013G19KT 7SM SCT013 OVC022 03/00 A3003 RMK AO2 T00250002
KFOA 120835Z AUTO 34014G21KT 5SM BR OVC013 03/01 A3002 RMK AO2 T00270005
KFOA 120815Z AUTO 34013G21KT 5SM DZ OVC013 04/02 A3001 RMK AO2 T00350016
KFOA 120755Z AUTO 32016G19KT 7SM OVC013 04/02 A2999 RMK AO2 T00400020
KFOA 120735Z AUTO 32014G21KT 7SM OVC013 04/02 A2999 RMK AO2 T00400020
KFOA 120715Z AUTO 32012G22KT 5SM BR OVC015 04/02 A2998 RMK AO2 T00400023
KFOA 120655Z AUTO 32008KT 5SM BR OVC015 04/03 A2998 RMK AO2 T00400025
KFOA 120635Z AUTO 32014G18KT 5SM DZ OVC015 04/02 A2998 RMK AO2 T00420019
KFOA 120615Z AUTO 32015G23KT 7SM OVC017 05/02 A2997 RMK AO2 T00470016
KFOA 120555Z AUTO 32020G25KT 10SM OVC019 05/01 A2997 RMK AO2 T00500012 10107 20050 401511040
KFOA 120535Z AUTO 31017G24KT 10SM OVC019 05/01 A2996 RMK AO2 T00510012
KFOA 120515Z AUTO 31019G26KT 10SM OVC021 06/01 A2994 RMK AO2 T00550010
KFOA 120455Z AUTO 30015G27KT 10SM OVC023 06/01 A2994 RMK AO2 T00570014
KFOA 120435Z AUTO 30022G30KT 10SM OVC025 06/01 A2992 RMK AO2 T00610011
KFOA 120415Z AUTO 31021G30KT 10SM OVC027 07/01 A2992 RMK AO2 T00650012
KFOA 120355Z AUTO 30019G26KT 10SM BKN028 OVC035 07/01 A2991 RMK AO2 T00690011
KFOA 120335Z AUTO 29014G18KT 10SM OVC034 07/01 A2989 RMK AO2 T00710008
KFOA 120315Z AUTO 30013G21KT 10SM BKN036 BKN048 BKN060 07/01 A2989 RMK AO2 T00710006
KFOA 120255Z AUTO 30020G25KT 10SM BKN038 BKN048 OVC070 08/01 A2989 RMK AO2 T00770005
KFOA 120235Z AUTO 30016G24KT 10SM BKN038 OVC044 08/01 A2988 RMK AO2 T00820005
KFOA 120215Z AUTO 30016G26KT 10SM BKN041 OVC055 09/01 A2987 RMK AO2 T00850005
KFOA 120155Z AUTO 30018G24KT 10SM SCT041 OVC055 09/01 A2986 RMK AO2 T00860005
KFOA 120135Z AUTO 31014G23KT 10SM OVC049 09/01 A2986 RMK AO2 T00880005
KFOA 120115Z AUTO 30019G26KT 10SM BKN047 OVC055 09/00 A2985 RMK AO2 T00900000
KFOA 120055Z AUTO 29019G25KT 10SM OVC055 09/00 A2984 RMK AO2 T00931002
KFOA 120035Z AUTO 29020G31KT 10SM OVC055 10/00 A2984 RMK AO2 T00981005
KFOA 120015Z AUTO 30017G27KT 10SM OVC070 10/00 A2983 RMK AO2 T01001005
KFOA 112355Z AUTO 30016G26KT 10SM SCT060 OVC070 11/M01 A2983 RMK AO2 T01081010 10151 20108
KFOA 112335Z AUTO 28012KT 10SM OVC060 11/M02 A2981 RMK AO2 T01081019
KFOA 112315Z AUTO 29010KT 10SM OVC070 11/M02 A2981 RMK AO2 T01081023